Time;durP1;ratioP1;P1;durP2;ratioP2;P2;SDS_P1;SDS_P2;PMS_P1;PMS_P2;Temp;Humidity;BMP_temperature;BMP_pressure;BME280_temperature;BME280_humidity;BME280_pressure;Samples;Min_cycle;Max_cycle;Signal;HPM_P1;HPM_P2
2022/08/11 00:01:48;;;;;;;2.40;2.13;;;18.60;99.90;;;;;;5053896;28;20205;-54
2022/08/11 00:04:17;;;;;;;1.83;1.80;;;18.60;99.90;;;;;;5056303;28;20198;-54
2022/08/11 00:06:46;;;;;;;2.33;2.33;;;18.60;99.90;;;;;;5048275;28;20233;-52
2022/08/11 00:09:17;;;;;;;2.10;2.00;;;18.50;99.90;;;;;;5052243;28;20208;-52
2022/08/11 00:11:48;;;;;;;2.30;2.20;;;18.40;99.90;;;;;;5058940;28;20236;-54
2022/08/11 00:14:17;;;;;;;2.40;2.20;;;18.30;99.90;;;;;;5052885;28;20205;-54
2022/08/11 00:16:54;;;;;;;2.17;2.17;;;18.30;99.90;;;;;;5052418;28;20273;-54
2022/08/11 00:19:25;;;;;;;2.00;1.90;;;18.20;99.90;;;;;;5056027;28;20201;-52
2022/08/11 00:21:55;;;;;;;2.23;1.87;;;18.20;99.90;;;;;;5053623;28;20194;-54
2022/08/11 00:24:24;;;;;;;2.20;2.10;;;18.10;99.90;;;;;;5044335;28;20210;-54
2022/08/11 00:26:53;;;;;;;1.80;1.80;;;18.10;99.90;;;;;;5045381;28;20642;-54
2022/08/11 00:29:21;;;;;;;2.30;2.20;;;18.10;99.90;;;;;;5047287;28;20202;-54
2022/08/11 00:31:52;;;;;;;2.40;2.20;;;18.00;99.90;;;;;;5049542;28;20260;-54
2022/08/11 00:34:22;;;;;;;2.10;2.00;;;18.00;99.90;;;;;;5047098;28;20288;-54
2022/08/11 00:36:54;;;;;;;2.07;2.00;;;18.00;99.90;;;;;;5054119;28;20221;-54
2022/08/11 00:39:25;;;;;;;2.60;2.40;;;17.90;99.90;;;;;;5046617;28;20675;-54
2022/08/11 00:42:21;;;;;;;1.93;1.93;;;17.90;99.90;;;;;;5052348;28;20250;-52
2022/08/11 00:44:59;;;;;;;2.53;2.43;;;17.80;99.90;;;;;;5049082;28;20217;-54
2022/08/11 00:47:50;;;;;;;2.13;2.13;;;17.80;99.90;;;;;;5050848;28;20201;-54
2022/08/11 00:50:26;;;;;;;2.07;1.97;;;17.80;99.90;;;;;;5048034;28;20198;-54
2022/08/11 00:53:32;;;;;;;2.30;1.90;;;17.80;99.90;;;;;;5052849;28;20216;-54
2022/08/11 00:56:32;;;;;;;2.33;2.13;;;17.80;99.90;;;;;;5043632;28;20221;-52
2022/08/11 00:59:36;;;;;;;2.20;2.17;;;17.80;99.90;;;;;;5056510;28;20198;-54
2022/08/11 01:02:19;;;;;;;2.37;2.20;;;17.80;99.90;;;;;;5040041;28;20201;-54
2022/08/11 01:05:28;;;;;;;2.33;2.00;;;17.70;99.90;;;;;;5047377;28;20257;-54
2022/08/11 01:08:28;;;;;;;2.30;2.20;;;17.70;99.90;;;;;;5033268;28;20237;-52
2022/08/11 01:11:15;;;;;;;2.20;2.00;;;17.70;99.90;;;;;;5046747;28;20589;-54
2022/08/11 01:14:16;;;;;;;2.03;1.93;;;17.70;99.90;;;;;;5042915;28;20224;-54
2022/08/11 01:17:04;;;;;;;2.33;2.00;;;17.70;99.90;;;;;;5034043;28;20222;-54
2022/08/11 01:19:53;;;;;;;2.73;2.53;;;17.70;99.90;;;;;;5042873;28;20218;-54
2022/08/11 01:23:02;;;;;;;2.43;2.33;;;17.70;99.90;;;;;;5043782;28;20229;-55
2022/08/11 01:26:01;;;;;;;2.30;2.20;;;17.60;99.90;;;;;;5044922;28;20254;-55
2022/08/11 01:29:10;;;;;;;2.10;2.00;;;17.60;99.90;;;;;;5050225;28;20687;-55
2022/08/11 01:32:13;;;;;;;2.60;2.50;;;17.50;99.90;;;;;;5050013;28;20205;-54
2022/08/11 01:35:22;;;;;;;3.13;3.03;;;17.50;99.90;;;;;;5051470;28;20193;-54
2022/08/11 01:38:14;;;;;;;2.63;2.60;;;17.50;99.90;;;;;;5057389;28;20198;-54
2022/08/11 01:41:15;;;;;;;3.00;2.90;;;17.40;99.90;;;;;;5045905;28;20285;-54
2022/08/11 01:47:49;;;;;;;2.40;2.30;;;17.30;99.90;;;;;;5048211;28;20209;-54
2022/08/11 01:50:08;;;;;;;3.07;2.90;;;17.30;99.90;;;;;;5051128;28;20572;-54
2022/08/11 01:52:48;;;;;;;2.40;2.30;;;17.20;99.90;;;;;;5050063;28;20217;-54
2022/08/11 01:55:25;;;;;;;5.03;3.43;;;17.10;99.90;;;;;;5046516;28;20268;-54
2022/08/11 01:58:06;;;;;;;2.33;2.23;;;17.10;99.90;;;;;;5051046;28;20206;-54
2022/08/11 02:00:46;;;;;;;3.10;2.90;;;17.10;99.90;;;;;;5058201;28;20201;-54
2022/08/11 02:03:20;;;;;;;3.63;3.43;;;17.10;99.90;;;;;;5042811;28;20225;-54
2022/08/11 02:06:53;;;;;;;2.33;2.23;;;17.10;99.90;;;;;;5038461;28;20893;-54
2022/08/11 02:08:59;;;;;;;3.00;2.90;;;17.10;99.90;;;;;;5051598;28;20197;-54
2022/08/11 02:11:30;;;;;;;2.83;2.73;;;17.20;99.90;;;;;;5050102;28;20198;-54
2022/08/11 02:14:02;;;;;;;3.33;3.07;;;17.10;99.90;;;;;;5047770;28;20255;-54
2022/08/11 02:16:44;;;;;;;1.90;1.90;;;17.10;99.90;;;;;;5059599;28;20235;-54
2022/08/11 02:25:02;;;;;;;2.87;2.77;;;17.00;99.90;;;;;;5047134;28;20229;-54
2022/08/11 02:27:41;;;;;;;2.30;2.20;;;17.00;99.90;;;;;;5041790;28;20206;-54
2022/08/11 02:30:11;;;;;;;2.73;2.57;;;16.90;99.90;;;;;;5044721;28;20202;-54
2022/08/11 02:35:44;;;;;;;2.83;2.73;;;17.00;99.90;;;;;;5057354;28;20240;-54
2022/08/11 02:38:20;;;;;;;3.07;2.97;;;17.00;99.90;;;;;;5055487;28;20201;-54
2022/08/11 02:40:56;;;;;;;2.57;2.57;;;17.00;99.90;;;;;;5052772;28;20194;-54
2022/08/11 02:43:46;;;;;;;2.60;2.40;;;17.00;99.90;;;;;;5047796;28;20194;-54
2022/08/11 02:46:21;;;;;;;3.20;3.00;;;17.00;99.90;;;;;;5053756;28;20237;-54
2022/08/11 02:52:04;;;;;;;3.60;2.60;;;16.90;99.90;;;;;;5047457;28;20217;-54
2022/08/11 02:54:43;;;;;;;3.00;2.80;;;16.80;99.90;;;;;;5056275;28;20197;-54
2022/08/11 02:57:20;;;;;;;2.73;2.63;;;16.70;99.90;;;;;;5047113;28;20197;-54
2022/08/11 02:59:55;;;;;;;3.37;3.17;;;16.70;99.90;;;;;;5043767;28;20208;-54
2022/08/11 03:02:33;;;;;;;6.57;3.13;;;16.60;99.90;;;;;;5052148;28;20196;-54
2022/08/11 03:05:12;;;;;;;3.40;3.30;;;16.60;99.90;;;;;;5057739;28;20233;-54
2022/08/11 03:07:56;;;;;;;3.23;2.73;;;16.60;99.90;;;;;;5050594;28;20251;-54
2022/08/11 03:10:28;;;;;;;4.13;3.67;;;16.50;99.90;;;;;;5048116;28;20205;-54
2022/08/11 03:19:04;;;;;;;2.97;2.87;;;16.50;99.90;;;;;;5045663;28;20212;-54
2022/08/11 03:21:42;;;;;;;3.90;3.70;;;16.60;99.90;;;;;;5048180;28;20204;-54
2022/08/11 03:24:15;;;;;;;4.97;4.57;;;16.60;99.90;;;;;;5046741;28;20204;-53
2022/08/11 03:26:52;;;;;;;3.87;3.33;;;16.60;99.90;;;;;;5050083;28;20229;-53
2022/08/11 03:29:29;;;;;;;3.53;3.43;;;16.60;99.90;;;;;;5046679;28;20205;-53
2022/08/11 03:32:03;;;;;;;4.00;3.27;;;16.50;99.90;;;;;;5048684;28;20298;-54
2022/08/11 03:34:36;;;;;;;3.60;3.30;;;16.50;99.90;;;;;;5049339;28;20664;-54
2022/08/11 03:37:55;;;;;;;3.53;3.43;;;16.50;99.90;;;;;;5049734;28;20197;-54
2022/08/11 03:43:44;;;;;;;3.03;2.80;;;16.30;99.90;;;;;;5053109;28;20196;-55
2022/08/11 03:46:16;;;;;;;3.23;3.00;;;16.20;99.90;;;;;;5048452;28;20221;-53
2022/08/11 03:48:54;;;;;;;2.93;2.73;;;16.20;99.90;;;;;;5050289;28;20801;-53
2022/08/11 03:51:29;;;;;;;3.60;3.40;;;16.20;99.90;;;;;;5052306;28;20244;-54
2022/08/11 03:54:15;;;;;;;3.90;3.70;;;16.20;99.90;;;;;;5057554;28;20838;-54
2022/08/11 03:57:24;;;;;;;8.67;3.57;;;16.10;99.90;;;;;;5054006;28;21732;-53
2022/08/11 04:00:21;;;;;;;3.53;2.93;;;16.10;99.90;;;;;;5051809;28;20272;-53
2022/08/11 04:03:30;;;;;;;3.53;3.43;;;16.00;99.90;;;;;;5040591;28;20190;-53
2022/08/11 04:06:48;;;;;;;3.20;3.10;;;16.00;99.90;;;;;;5056562;28;20714;-53
2022/08/11 04:10:04;;;;;;;3.73;3.43;;;16.00;99.90;;;;;;4990489;28;20287;-54
2022/08/11 04:12:51;;;;;;;3.67;3.37;;;16.00;99.90;;;;;;5052551;28;20218;-53
2022/08/11 04:16:01;;;;;;;3.27;3.17;;;16.00;99.90;;;;;;5052940;28;20639;-53
2022/08/11 04:19:04;;;;;;;3.33;3.13;;;16.10;99.90;;;;;;5029855;28;20200;-54
2022/08/11 04:22:04;;;;;;;3.30;3.13;;;16.10;99.90;;;;;;5050671;28;20243;-53
2022/08/11 04:28:14;;;;;;;3.30;3.13;;;16.10;99.90;;;;;;5065065;27;20596;-53
2022/08/11 04:31:06;;;;;;;3.40;3.30;;;16.10;99.90;;;;;;5062055;28;20227;-53
2022/08/11 04:33:59;;;;;;;3.27;3.07;;;16.10;99.90;;;;;;5063401;28;20205;-53
2022/08/11 04:39:49;;;;;;;3.20;3.10;;;16.20;99.90;;;;;;5052191;28;20204;-53
2022/08/11 04:43:21;;;;;;;4.87;3.03;;;16.20;99.90;;;;;;5056555;28;20196;-53
2022/08/11 04:46:27;;;;;;;3.30;3.10;;;16.20;99.90;;;;;;5052272;28;20247;-53
2022/08/11 05:01:42;;;;;;;4.93;3.07;;;18.00;99.90;;;;;;5058687;28;20200;-53
2022/08/11 05:08:03;;;;;;;2.53;2.30;;;18.60;99.90;;;;;;5050160;28;20271;-53
2022/08/11 05:10:48;;;;;;;3.00;2.90;;;18.50;99.90;;;;;;5051364;28;20292;-53
2022/08/11 05:36:12;;;;;;;2.20;2.20;;;25.00;99.90;;;;;;5051490;28;20212;-54
2022/08/11 05:58:10;;;;;;;2.93;2.40;;;27.10;99.90;;;;;;5034078;28;20197;-54
2022/08/11 06:00:43;;;;;;;3.17;2.90;;;27.30;99.90;;;;;;5037564;28;20213;-54
2022/08/11 06:03:11;;;;;;;4.03;2.90;;;27.40;99.90;;;;;;5034316;28;20738;-54
2022/08/11 06:05:41;;;;;;;2.38;2.20;;;27.20;99.90;;;;;;5035027;28;20229;-54
2022/08/11 06:08:09;;;;;;;2.83;2.72;;;27.60;99.90;;;;;;5038114;28;20194;-54
2022/08/11 06:10:38;;;;;;;3.13;2.92;;;28.00;99.90;;;;;;5034570;28;20237;-54
2022/08/11 06:13:08;;;;;;;2.92;2.83;;;28.60;99.90;;;;;;5039600;28;20222;-54
2022/08/11 06:15:45;;;;;;;2.55;2.45;;;28.50;99.90;;;;;;5038908;28;20226;-54
2022/08/11 06:18:13;;;;;;;2.45;2.25;;;28.90;99.90;;;;;;5043486;28;20547;-54
2022/08/11 06:20:47;;;;;;;6.22;3.15;;;29.10;99.80;;;;;;5046354;28;20202;-54
2022/08/11 06:23:17;;;;;;;2.88;2.80;;;29.00;99.80;;;;;;5043593;28;20802;-53
2022/08/11 06:25:45;;;;;;;2.40;2.35;;;29.30;99.10;;;;;;5042885;28;20227;-54
2022/08/11 06:28:17;;;;;;;2.25;2.05;;;29.30;98.70;;;;;;5032611;28;20217;-53
2022/08/11 06:30:46;;;;;;;2.47;2.28;;;29.40;98.80;;;;;;5032661;28;20230;-53
2022/08/11 06:33:16;;;;;;;3.88;2.25;;;29.40;98.70;;;;;;5035437;28;20248;-54
2022/08/11 06:35:52;;;;;;;2.15;1.70;;;29.60;97.90;;;;;;5050785;28;20229;-54
2022/08/11 06:38:41;;;;;;;4.60;2.47;;;29.80;97.90;;;;;;5051446;28;20287;-54
2022/08/11 06:41:33;;;;;;;2.05;1.95;;;30.30;97.50;;;;;;5032615;28;20604;-54
2022/08/11 06:44:09;;;;;;;2.95;1.80;;;30.60;97.70;;;;;;5047217;28;20194;-54
2022/08/11 06:46:39;;;;;;;2.03;1.90;;;30.90;96.30;;;;;;5044860;28;20230;-55
2022/08/11 06:51:10;;;;;;;1.80;1.80;;;30.70;96.20;;;;;;5036613;28;20199;-54
2022/08/11 06:51:55;;;;;;;2.95;2.72;;;31.20;96.00;;;;;;5039806;28;20096;-53
2022/08/11 06:54:23;;;;;;;2.63;2.53;;;30.90;95.10;;;;;;5038089;28;20229;-54
2022/08/11 07:02:26;;;;;;;6.35;1.85;;;31.60;94.70;;;;;;5036877;28;20248;-54
2022/08/11 07:04:59;;;;;;;1.90;1.90;;;31.70;95.10;;;;;;5049595;28;20224;-53
2022/08/11 07:16:50;;;;;;;3.40;2.33;;;29.70;96.90;;;;;;5052154;28;20340;-53
2022/08/11 07:30:48;;;;;;;2.95;2.80;;;28.80;97.60;;;;;;5048748;28;20285;-53
2022/08/11 07:33:25;;;;;;;2.47;2.28;;;28.60;98.50;;;;;;5047131;28;20313;-52
2022/08/11 07:35:57;;;;;;;3.13;2.80;;;28.70;98.30;;;;;;5050698;28;20282;-53
2022/08/11 07:38:42;;;;;;;3.03;2.83;;;28.50;98.60;;;;;;5051789;28;20205;-53
2022/08/11 07:41:10;;;;;;;2.93;2.30;;;28.20;99.10;;;;;;5051636;28;20208;-54
2022/08/11 07:43:37;;;;;;;2.88;2.70;;;28.50;97.60;;;;;;5050334;28;20609;-54
2022/08/11 07:54:23;;;;;;;2.65;2.45;;;29.60;97.40;;;;;;5050359;28;20279;-55
2022/08/11 07:56:51;;;;;;;2.80;2.70;;;29.80;97.20;;;;;;5051410;28;20217;-56
2022/08/11 08:18:39;;;;;;;2.25;2.17;;;31.00;94.90;;;;;;5051335;28;20618;-54
2022/08/11 08:21:11;;;;;;;2.80;2.65;;;31.00;95.50;;;;;;5045885;28;20206;-54
2022/08/11 08:23:40;;;;;;;3.28;2.40;;;30.60;94.70;;;;;;5050724;28;20204;-54
2022/08/11 08:26:57;;;;;;;3.35;3.05;;;30.30;94.90;;;;;;5050676;28;20718;-55
2022/08/11 08:30:46;;;;;;;3.90;2.45;;;30.00;95.70;;;;;;5047604;28;20205;-55
2022/08/11 08:31:47;;;;;;;2.72;2.53;;;30.70;95.90;;;;;;5041687;28;20210;-55
2022/08/11 08:34:15;;;;;;;3.78;3.58;;;29.30;97.00;;;;;;5050339;28;20193;-54
2022/08/11 08:36:45;;;;;;;3.25;3.15;;;29.80;97.00;;;;;;5050957;28;20304;-55
2022/08/11 08:39:13;;;;;;;3.10;2.90;;;29.70;96.20;;;;;;5050926;28;20209;-55
2022/08/11 08:41:41;;;;;;;3.00;2.45;;;29.40;95.50;;;;;;5048677;28;20225;-55
2022/08/11 08:44:10;;;;;;;3.95;3.25;;;29.00;97.10;;;;;;5048319;28;20284;-54
2022/08/11 08:46:43;;;;;;;5.07;3.55;;;28.90;96.20;;;;;;5050920;28;20279;-55
2022/08/11 08:49:16;;;;;;;4.82;3.08;;;29.40;96.90;;;;;;5050782;28;20201;-55
2022/08/11 08:51:49;;;;;;;5.97;3.50;;;29.10;97.60;;;;;;5046508;28;20202;-55
2022/08/11 08:54:20;;;;;;;3.67;3.47;;;29.40;97.00;;;;;;5050921;28;20197;-54
2022/08/11 08:56:48;;;;;;;2.53;2.42;;;29.20;97.20;;;;;;5050950;28;20221;-55
2022/08/11 08:59:16;;;;;;;2.70;2.58;;;30.10;95.90;;;;;;5051077;28;20272;-55
2022/08/11 09:01:50;;;;;;;3.13;3.00;;;30.60;94.80;;;;;;5040517;28;20207;-54
2022/08/11 09:04:19;;;;;;;3.30;3.03;;;30.90;94.90;;;;;;5050462;28;20606;-55
2022/08/11 09:06:49;;;;;;;3.05;2.80;;;30.80;94.80;;;;;;5050554;28;20316;-54
2022/08/11 09:09:17;;;;;;;2.72;2.47;;;30.90;93.80;;;;;;5042539;28;20214;-55
2022/08/11 09:11:52;;;;;;;3.08;2.50;;;30.80;94.60;;;;;;5047474;28;20205;-55
2022/08/11 09:14:22;;;;;;;2.53;2.42;;;30.10;94.90;;;;;;5051503;28;20204;-54
2022/08/11 09:16:50;;;;;;;3.47;2.28;;;29.60;95.40;;;;;;5051306;28;20704;-54
2022/08/11 09:19:20;;;;;;;2.30;2.30;;;29.00;96.10;;;;;;5041557;28;20210;-54
2022/08/11 09:26:58;;;;;;;2.60;2.50;;;29.10;95.80;;;;;;5050734;28;20201;-54
2022/08/11 09:27:26;;;;;;;2.38;2.38;;;28.30;96.50;;;;;;5052647;28;20239;-54
2022/08/11 09:29:54;;;;;;;3.08;2.88;;;28.00;97.30;;;;;;5051946;28;20674;-54
2022/08/11 09:32:22;;;;;;;3.38;3.25;;;28.10;97.40;;;;;;5041483;28;20203;-54
2022/08/11 09:34:51;;;;;;;5.55;3.35;;;28.30;96.70;;;;;;5052123;28;20221;-55
2022/08/11 09:45:39;;;;;;;3.38;3.28;;;28.90;97.60;;;;;;5052392;28;20313;-55
2022/08/11 09:48:07;;;;;;;2.80;2.42;;;29.20;97.10;;;;;;5051139;28;20237;-55
2022/08/11 09:50:35;;;;;;;3.58;2.90;;;29.20;96.50;;;;;;5050208;28;20259;-55
2022/08/11 09:53:04;;;;;;;2.85;2.45;;;30.10;95.50;;;;;;5049971;28;20663;-55
2022/08/11 09:55:32;;;;;;;2.80;2.70;;;30.60;95.00;;;;;;5045993;28;20222;-55
2022/08/11 09:58:15;;;;;;;2.72;2.42;;;30.60;95.90;;;;;;5038956;28;20190;-55
2022/08/11 10:00:43;;;;;;;3.03;2.67;;;30.70;95.70;;;;;;5040474;28;20252;-55
2022/08/11 10:03:13;;;;;;;2.67;2.58;;;30.70;95.70;;;;;;5039578;28;20195;-55
2022/08/11 10:08:32;;;;;;;5.35;3.55;;;30.20;95.40;;;;;;5046946;28;20225;-55
2022/08/11 10:11:00;;;;;;;3.13;2.90;;;30.40;94.90;;;;;;5050076;28;20253;-55
2022/08/11 10:15:32;;;;;;;2.45;2.45;;;30.10;96.20;;;;;;5038310;28;20198;-55
2022/08/11 10:16:25;;;;;;;3.00;2.80;;;29.60;96.30;;;;;;5049396;28;20909;-55
2022/08/11 10:18:54;;;;;;;3.47;3.30;;;30.20;94.60;;;;;;5037023;28;20193;-55
2022/08/11 10:21:28;;;;;;;3.15;2.80;;;30.50;94.10;;;;;;5044524;28;20846;-55
2022/08/11 10:26:57;;;;;;;3.13;2.90;;;29.80;95.90;;;;;;5044559;28;20257;-55
2022/08/11 10:35:07;;;;;;;3.20;2.97;;;29.00;97.20;;;;;;4999133;28;20228;-55
2022/08/11 10:37:37;;;;;;;3.00;2.90;;;30.00;95.50;;;;;;5042137;28;20255;-55
2022/08/11 10:40:09;;;;;;;6.15;3.00;;;30.10;95.10;;;;;;5031978;28;20256;-55
2022/08/11 10:48:09;;;;;;;2.63;2.47;;;29.50;94.90;;;;;;5032734;28;20603;-55
2022/08/11 10:58:58;;;;;;;3.13;2.92;;;29.30;95.60;;;;;;5052271;28;20575;-55
2022/08/11 11:01:28;;;;;;;3.67;3.30;;;29.50;96.60;;;;;;5051642;28;20198;-55
2022/08/11 11:03:58;;;;;;;3.20;3.00;;;29.00;96.50;;;;;;5052323;28;20218;-55
2022/08/11 11:06:33;;;;;;;3.13;2.92;;;28.80;98.70;;;;;;5052364;28;20269;-56
2022/08/11 11:09:06;;;;;;;3.17;3.08;;;28.80;97.40;;;;;;5044835;28;20221;-55
2022/08/11 11:19:59;;;;;;;3.28;2.83;;;27.90;98.10;;;;;;5051885;28;20609;-55
2022/08/11 11:22:38;;;;;;;3.05;2.95;;;28.00;98.80;;;;;;5050790;28;20201;-55
2022/08/11 11:25:17;;;;;;;2.88;2.67;;;28.00;99.90;;;;;;5032540;28;20327;-55
2022/08/11 11:28:06;;;;;;;3.13;3.03;;;28.00;99.90;;;;;;5031903;28;20226;-55
2022/08/11 11:30:40;;;;;;;3.53;3.28;;;27.70;99.90;;;;;;5034646;28;20206;-55
2022/08/11 11:33:16;;;;;;;3.25;3.13;;;27.50;98.90;;;;;;5044212;28;20194;-55
2022/08/11 11:35:57;;;;;;;3.40;3.17;;;27.40;99.90;;;;;;5051313;28;20228;-55
2022/08/11 11:38:24;;;;;;;3.00;2.88;;;27.60;99.90;;;;;;5051609;28;20541;-55
2022/08/11 11:43:36;;;;;;;3.95;3.40;;;27.70;99.90;;;;;;5048142;28;20201;-56
2022/08/11 11:46:05;;;;;;;4.47;4.18;;;27.90;98.40;;;;;;5051663;28;20586;-55
2022/08/11 11:48:33;;;;;;;3.85;3.65;;;27.70;99.90;;;;;;5049304;28;20747;-55
2022/08/11 11:51:01;;;;;;;3.60;3.50;;;27.40;99.80;;;;;;5050245;28;20205;-56
2022/08/11 11:53:28;;;;;;;3.33;3.13;;;27.40;99.90;;;;;;5051779;28;20194;-55
2022/08/11 11:55:57;;;;;;;3.60;3.40;;;27.60;99.90;;;;;;5051875;28;20222;-55
2022/08/11 12:01:18;;;;;;;4.07;3.78;;;27.80;99.80;;;;;;5050735;28;20196;-55
2022/08/11 12:03:47;;;;;;;3.58;3.38;;;27.80;99.90;;;;;;5046817;28;20619;-55
2022/08/11 12:06:16;;;;;;;3.92;3.83;;;27.40;99.90;;;;;;5038346;28;20221;-55
2022/08/11 12:08:45;;;;;;;3.95;3.70;;;27.40;99.90;;;;;;5047023;28;20217;-55
2022/08/11 12:14:00;;;;;;;3.75;3.65;;;27.40;99.90;;;;;;5049201;28;20204;-55
2022/08/11 12:16:29;;;;;;;3.70;3.60;;;27.50;99.90;;;;;;5043813;28;20280;-55
2022/08/11 12:18:59;;;;;;;3.55;3.45;;;27.20;99.90;;;;;;5036962;28;20210;-55
2022/08/11 12:21:28;;;;;;;3.72;3.55;;;27.20;99.90;;;;;;5038555;28;20555;-55
2022/08/11 12:29:28;;;;;;;3.92;3.83;;;27.10;99.90;;;;;;5031956;28;20703;-55
2022/08/11 12:31:59;;;;;;;5.13;3.65;;;27.10;99.90;;;;;;5030489;28;20198;-55
2022/08/11 12:34:28;;;;;;;3.95;3.75;;;27.30;99.90;;;;;;5031063;28;20221;-55
2022/08/11 12:36:58;;;;;;;4.32;4.07;;;27.30;99.90;;;;;;5047402;28;20217;-55
2022/08/11 12:53:27;;;;;;;4.75;3.90;;;27.50;99.90;;;;;;5034437;28;20194;-55
2022/08/11 12:58:43;;;;;;;4.53;4.32;;;27.70;99.90;;;;;;5047707;28;20225;-55
2022/08/11 13:06:42;;;;;;;3.15;3.05;;;27.70;99.90;;;;;;5037718;28;20593;-55
2022/08/11 13:09:11;;;;;;;7.35;3.72;;;27.60;99.90;;;;;;5037295;28;20597;-55
2022/08/11 13:14:25;;;;;;;3.72;3.42;;;27.60;99.90;;;;;;5039615;28;20205;-55
2022/08/11 13:19:42;;;;;;;4.20;3.85;;;27.70;99.90;;;;;;5054365;28;20200;-55
2022/08/11 13:22:10;;;;;;;3.72;3.55;;;27.60;99.90;;;;;;5052461;28;20202;-55
2022/08/11 13:24:38;;;;;;;4.22;4.03;;;27.50;99.90;;;;;;5050437;28;20243;-54
2022/08/11 13:27:06;;;;;;;3.55;3.45;;;27.60;99.90;;;;;;5054229;28;20213;-56
2022/08/11 13:29:34;;;;;;;4.05;3.65;;;27.70;99.90;;;;;;5054121;28;20222;-54
2022/08/11 13:32:02;;;;;;;3.92;3.63;;;27.60;99.90;;;;;;5049698;28;20202;-55
2022/08/11 13:34:31;;;;;;;4.05;3.90;;;27.60;99.90;;;;;;5053727;28;20205;-55
2022/08/11 13:37:03;;;;;;;4.35;4.05;;;27.60;99.90;;;;;;5051728;28;20194;-55
2022/08/11 13:39:31;;;;;;;4.38;3.67;;;27.50;99.90;;;;;;5048971;28;20224;-55
2022/08/11 13:42:01;;;;;;;4.15;3.90;;;27.50;99.90;;;;;;5055343;28;20190;-55
2022/08/11 13:44:30;;;;;;;4.10;3.75;;;27.50;99.90;;;;;;5053836;28;20275;-55
2022/08/11 13:47:01;;;;;;;3.80;3.65;;;27.50;99.90;;;;;;5053234;28;20237;-55
2022/08/11 13:49:29;;;;;;;3.70;3.60;;;27.60;99.90;;;;;;5041591;28;20619;-55
2022/08/11 13:51:57;;;;;;;2.97;2.97;;;27.50;99.90;;;;;;5053427;28;20201;-55
2022/08/11 13:54:27;;;;;;;3.85;3.42;;;27.50;99.90;;;;;;5051680;28;20272;-55
2022/08/11 13:56:57;;;;;;;3.97;3.70;;;27.50;99.90;;;;;;5053462;28;20221;-55
2022/08/11 13:59:25;;;;;;;3.60;3.50;;;27.60;99.90;;;;;;5052369;28;20201;-55
2022/08/11 14:01:59;;;;;;;3.53;3.35;;;27.70;99.90;;;;;;5042098;28;20211;-55
2022/08/11 14:04:32;;;;;;;3.70;3.50;;;27.80;99.90;;;;;;5052397;28;20203;-55
2022/08/11 14:07:03;;;;;;;3.65;3.55;;;27.70;99.90;;;;;;5051399;28;20194;-55
2022/08/11 14:09:35;;;;;;;3.88;3.78;;;27.70;99.90;;;;;;5052535;28;20225;-55
2022/08/11 14:14:59;;;;;;;3.88;3.63;;;27.50;99.90;;;;;;5053141;28;20213;-55
2022/08/11 14:17:27;;;;;;;4.00;3.67;;;27.40;99.90;;;;;;5053524;28;20201;-55
2022/08/11 14:19:56;;;;;;;4.10;3.90;;;27.40;99.90;;;;;;5052227;28;20234;-55
2022/08/11 14:22:22;;;;;;;3.72;3.63;;;27.40;99.90;;;;;;5050594;28;20202;-55
2022/08/11 14:24:51;;;;;;;3.60;3.30;;;27.40;99.90;;;;;;5033063;28;20593;-55
2022/08/11 14:27:22;;;;;;;4.72;4.03;;;27.40;99.90;;;;;;5033239;28;20265;-55
2022/08/11 14:29:49;;;;;;;5.65;3.90;;;27.50;99.90;;;;;;5043620;28;20609;-55
2022/08/11 14:32:17;;;;;;;3.92;3.60;;;27.50;99.90;;;;;;5052039;28;20198;-55
2022/08/11 14:34:45;;;;;;;4.28;4.07;;;27.50;99.90;;;;;;5052674;28;20221;-55
2022/08/11 14:37:16;;;;;;;3.58;3.38;;;27.50;99.90;;;;;;5053088;28;20255;-55
2022/08/11 14:39:45;;;;;;;3.90;3.80;;;27.50;99.90;;;;;;5042575;28;20202;-53
2022/08/11 14:48:08;;;;;;;3.95;3.70;;;27.60;99.90;;;;;;5048319;28;20248;-53
2022/08/11 14:50:36;;;;;;;3.83;3.72;;;27.60;99.90;;;;;;5037899;28;20240;-53
2022/08/11 14:53:06;;;;;;;3.72;3.53;;;27.60;99.90;;;;;;5032198;28;20205;-56
2022/08/11 14:58:26;;;;;;;4.20;3.95;;;27.60;99.90;;;;;;5045974;28;20308;-56
2022/08/11 15:00:56;;;;;;;3.63;3.50;;;27.50;99.90;;;;;;5049562;28;20259;-53
2022/08/11 15:03:24;;;;;;;4.05;3.55;;;27.50;99.90;;;;;;5047110;28;20201;-55
2022/08/11 15:05:53;;;;;;;5.15;4.28;;;27.40;99.90;;;;;;5051547;28;20629;-55
2022/08/11 15:08:53;;;;;;;4.47;4.18;;;27.40;99.90;;;;;;5050363;28;20222;-53
2022/08/11 15:12:07;;;;;;;3.70;3.60;;;27.40;99.90;;;;;;5046814;28;20199;-55
2022/08/11 15:14:03;;;;;;;3.75;3.00;;;27.30;99.90;;;;;;5043956;28;20194;-55
2022/08/11 15:19:18;;;;;;;4.05;3.55;;;27.40;99.90;;;;;;5042972;28;20269;-55
2022/08/11 15:24:30;;;;;;;3.50;3.30;;;27.30;99.90;;;;;;5049003;28;20200;-55
2022/08/11 15:38:03;;;;;;;3.60;3.55;;;27.30;99.90;;;;;;5038687;28;20246;-55
2022/08/11 15:46:13;;;;;;;4.22;3.25;;;27.30;99.90;;;;;;5037314;28;20247;-54
2022/08/11 15:48:47;;;;;;;5.18;4.15;;;27.30;99.90;;;;;;5042974;28;20221;-55
2022/08/11 15:51:30;;;;;;;4.18;3.97;;;27.30;99.90;;;;;;5046496;28;20212;-55
2022/08/11 15:53:59;;;;;;;4.00;3.78;;;27.30;99.90;;;;;;5049868;28;20201;-55
2022/08/11 15:56:29;;;;;;;3.85;3.60;;;27.20;99.90;;;;;;5043468;28;20214;-55
2022/08/11 16:04:34;;;;;;;4.35;4.03;;;27.10;99.90;;;;;;5031731;28;20209;-55
2022/08/11 16:07:05;;;;;;;3.70;3.50;;;27.10;99.90;;;;;;5037579;28;20198;-55
2022/08/11 16:09:36;;;;;;;3.93;3.63;;;27.10;99.90;;;;;;5042198;28;20229;-55
2022/08/11 16:12:07;;;;;;;4.00;3.78;;;27.10;99.90;;;;;;5047205;28;20198;-55
2022/08/11 16:17:27;;;;;;;3.72;3.58;;;27.10;99.90;;;;;;5046017;28;20200;-56
2022/08/11 16:19:56;;;;;;;4.40;3.88;;;27.20;99.90;;;;;;5049361;28;20711;-54
2022/08/11 16:22:33;;;;;;;4.00;3.67;;;27.20;99.90;;;;;;5051080;28;20194;-53
2022/08/11 16:25:01;;;;;;;4.07;3.88;;;27.10;99.90;;;;;;5051019;28;20857;-53
2022/08/11 16:27:32;;;;;;;3.65;3.55;;;27.20;99.90;;;;;;5051037;28;20850;-56
2022/08/11 16:30:01;;;;;;;3.58;3.38;;;27.20;99.90;;;;;;5046470;28;20220;-55
2022/08/11 16:32:32;;;;;;;3.78;3.67;;;27.10;99.90;;;;;;5046529;28;20194;-53
2022/08/11 16:40:33;;;;;;;5.22;3.50;;;27.10;99.90;;;;;;5041663;28;20225;-53
2022/08/11 16:48:37;;;;;;;4.43;4.33;;;27.10;99.90;;;;;;5049704;28;20232;-55
2022/08/11 16:51:05;;;;;;;4.03;3.60;;;26.90;99.90;;;;;;5042739;28;20667;-55
2022/08/11 16:53:32;;;;;;;3.55;3.28;;;26.90;99.90;;;;;;5048525;28;20580;-55
2022/08/11 16:56:03;;;;;;;3.42;3.22;;;26.80;99.90;;;;;;5045282;28;20222;-55
2022/08/11 17:01:21;;;;;;;3.63;3.38;;;26.80;99.90;;;;;;5050643;28;20196;-54
2022/08/11 17:15:02;;;;;;;3.60;3.40;;;26.50;99.90;;;;;;5050317;28;20216;-54
2022/08/11 17:17:35;;;;;;;4.18;3.90;;;26.40;99.90;;;;;;5048694;28;20693;-53
2022/08/11 17:20:08;;;;;;;3.67;3.50;;;26.40;99.90;;;;;;5050741;28;20205;-55
2022/08/11 17:25:27;;;;;;;3.95;3.65;;;26.30;99.90;;;;;;5044692;28;20232;-55
2022/08/11 17:27:58;;;;;;;3.87;3.60;;;26.20;99.90;;;;;;5048425;28;20289;-55
2022/08/11 17:35:27;;;;;;;3.67;3.37;;;26.20;99.90;;;;;;5050479;28;20221;-55
2022/08/11 17:36:02;;;;;;;3.78;3.58;;;26.20;99.90;;;;;;5044651;28;20224;-55
2022/08/11 17:38:30;;;;;;;4.67;4.00;;;26.10;99.90;;;;;;5050767;28;20271;-55
2022/08/11 17:49:36;;;;;;;3.70;3.40;;;25.90;99.90;;;;;;4998237;28;20329;-52
2022/08/11 18:00:24;;;;;;;4.43;4.28;;;25.70;99.90;;;;;;5052521;28;20200;-55
2022/08/11 18:05:46;;;;;;;5.93;4.33;;;25.60;99.90;;;;;;5050717;28;20216;-55
